D/T METAR WX W/DIR W/SPE G/SPE TEMP DEWP
25/05/20 19:20 EGLL 251820Z AUTO 27008KT 9999 NCD 23/04 Q1033 NOSIG W (270°) 9.2mph 23°C 4°C
25/05/20 18:50 EGLL 251750Z AUTO 29005KT 230V340 9999 NCD 24/04 Q1033 NOSIG WNW (290°) 5.8mph 24°C 4°C
25/05/20 18:20 EGLL 251720Z AUTO 29006KT 240V330 9999 NCD 25/03 Q1033 WNW (290°) 6.9mph 25°C 3°C
25/05/20 17:50 EGLL 251650Z AUTO 29007KT 250V340 9999 NCD 25/03 Q1033 NOSIG WNW (290°) 8.1mph 25°C 3°C
25/05/20 17:20 EGLL 251620Z AUTO 28007KT 230V320 9999 NCD 25/03 Q1033 NOSIG W (280°) 8.1mph 25°C 3°C
25/05/20 16:50 EGLL 251550Z AUTO 30007KT 260V340 9999 NCD 25/03 Q1033 WNW (300°) 8.1mph 25°C 3°C
25/05/20 16:20 EGLL 251520Z AUTO 26007KT 210V300 9999 NCD 25/04 Q1034 NOSIG W (260°) 8.1mph 25°C 4°C
25/05/20 15:50 EGLL 251450Z AUTO 29007KT 240V340 9999 NCD 25/04 Q1034 NOSIG WNW (290°) 8.1mph 25°C 4°C
25/05/20 15:20 EGLL 251420Z AUTO 30006KT 210V360 9999 NCD 25/04 Q1034 NOSIG WNW (300°) 6.9mph 25°C 4°C
25/05/20 14:50 EGLL 251350Z AUTO VRB06KT 9999 NCD 25/05 Q1034 NOSIG N (0°) 6.9mph 25°C 5°C
25/05/20 14:20 EGLL 251320Z AUTO 26007KT 220V310 9999 NCD 24/05 Q1034 NOSIG W (260°) 8.1mph 24°C 5°C
25/05/20 13:50 EGLL 251250Z AUTO 28007KT 230V360 9999 NCD 25/06 Q1034 NOSIG W (280°) 8.1mph 25°C 6°C
25/05/20 13:20 EGLL 251220Z AUTO VRB04KT 9999 NCD 24/06 Q1034 NOSIG N (0°) 4.6mph 24°C 6°C
25/05/20 12:50 EGLL 251150Z AUTO VRB05KT 9999 NCD 23/07 Q1034 N (0°) 5.8mph 23°C 7°C
25/05/20 12:20 EGLL 251120Z AUTO 26005KT 190V340 9999 NCD 23/08 Q1035 NOSIG W (260°) 5.8mph 23°C 8°C
25/05/20 11:50 EGLL 251050Z AUTO 25006KT 220V290 9999 NCD 22/08 Q1035 NOSIG WSW (250°) 6.9mph 22°C 8°C
25/05/20 11:20 EGLL 251020Z AUTO 20005KT 150V250 9999 NCD 22/09 Q1035 NOSIG SSW (200°) 5.8mph 22°C 9°C
25/05/20 10:50 EGLL 250950Z AUTO 21004KT 130V280 9999 NCD 20/08 Q1035 NOSIG SSW (210°) 4.6mph 20°C 8°C
25/05/20 10:20 EGLL 250920Z AUTO 22004KT 130V280 9999 NCD 20/08 Q1035 NOSIG SW (220°) 4.6mph 20°C 8°C
25/05/20 09:50 EGLL 250850Z AUTO 20004KT 150V270 9999 NCD 18/08 Q1035 NOSIG SSW (200°) 4.6mph 18°C 8°C
25/05/20 09:20 EGLL 250820Z AUTO VRB03KT 9999 NCD 18/07 Q1035 N (0°) 3.5mph 18°C 7°C
25/05/20 08:50 EGLL 250750Z AUTO VRB02KT 9999 NCD 17/07 Q1035 NOSIG N (0°) 2.3mph 17°C 7°C
25/05/20 08:20 EGLL 250720Z AUTO VRB01KT 9999 NCD 16/07 Q1035 NOSIG N (0°) 1.2mph 16°C 7°C
25/05/20 07:50 EGLL 250650Z AUTO VRB02KT 9999 NCD 15/07 Q1035 NOSIG N (0°) 2.3mph 15°C 7°C
25/05/20 07:20 EGLL 250620Z AUTO VRB02KT 9999 NCD 13/07 Q1035 NOSIG N (0°) 2.3mph 13°C 7°C
25/05/20 06:20 EGLL 250520Z AUTO 31003KT 9999 NCD 11/09 Q1035 NW (310°) 3.5mph 11°C 9°C
25/05/20 05:50 EGLL 250450Z AUTO 31004KT 9999 NCD 10/09 Q1035 NOSIG NW (310°) 4.6mph 10°C 9°C
25/05/20 05:20 EGLL 250420Z AUTO 29004KT 9999 NCD 10/08 Q1034 NOSIG WNW (290°) 4.6mph 10°C 8°C
25/05/20 04:50 EGLL 250350Z AUTO 29003KT 9999 NCD 10/08 Q1034 NOSIG WNW (290°) 3.5mph 10°C 8°C
25/05/20 04:20 EGLL 250320Z AUTO 28004KT 9999 NCD 11/08 Q1034 NOSIG W (280°) 4.6mph 11°C 8°C
25/05/20 03:20 EGLL 250220Z AUTO 28002KT 9999 NCD 11/08 Q1034 NOSIG W (280°) 2.3mph 11°C 8°C
25/05/20 02:50 EGLL 250150Z AUTO 27005KT 9999 NCD 11/08 Q1034 NOSIG W (270°) 5.8mph 11°C 8°C
25/05/20 02:20 EGLL 250120Z AUTO 26003KT 9999 NCD 12/08 Q1034 NOSIG W (260°) 3.5mph 12°C 8°C
25/05/20 01:50 EGLL 250050Z AUTO 28002KT 9999 NCD 13/09 Q1034 NOSIG W (280°) 2.3mph 13°C 9°C
25/05/20 00:50 EGLL 242350Z AUTO 29004KT 9999 NCD 14/09 Q1034 WNW (290°) 4.6mph 14°C 9°C
25/05/20 00:20 EGLL 242320Z AUTO 29006KT 9999 NCD 15/08 Q1033 NOSIG WNW (290°) 6.9mph 15°C 8°C
24/05/20 23:50 EGLL 242250Z AUTO 29007KT 9999 NCD 15/09 Q1033 NOSIG WNW (290°) 8.1mph 15°C 9°C
24/05/20 23:20 EGLL 242220Z AUTO 29007KT 9999 NCD 15/09 Q1033 NOSIG WNW (290°) 8.1mph 15°C 9°C
24/05/20 22:50 EGLL 242150Z AUTO 29007KT 9999 NCD 16/09 Q1033 WNW (290°) 8.1mph 16°C 9°C
24/05/20 22:20 EGLL 242120Z AUTO 29005KT 9999 NCD 15/09 Q1033 NOSIG WNW (290°) 5.8mph 15°C 9°C
24/05/20 21:50 EGLL 242050Z AUTO 28007KT 9999 NCD 18/08 Q1033 W (280°) 8.1mph 18°C 8°C
24/05/20 21:20 EGLL 242020Z AUTO VRB02KT 9999 NCD 18/07 Q1032 NOSIG N (0°) 2.3mph 18°C 7°C
24/05/20 20:50 EGLL 241950Z AUTO VRB02KT 9999 NCD 19/07 Q1032 N (0°) 2.3mph 19°C 7°C
24/05/20 20:20 EGLL 241920Z AUTO 32004KT 270V360 9999 NCD 20/07 Q1032 NOSIG NW (320°) 4.6mph 20°C 7°C
24/05/20 19:50 EGLL 241850Z AUTO 30005KT 280V350 9999 NCD 21/06 Q1032 NOSIG WNW (300°) 5.8mph 21°C 6°C
24/05/20 19:20 EGLL 241820Z AUTO 34005KT 270V040 9999 NCD 21/06 Q1031 NOSIG NNW (340°) 5.8mph 21°C 6°C
24/05/20 18:50 EGLL 241750Z AUTO 31006KT 280V340 9999 NCD 21/06 Q1031 NOSIG NW (310°) 6.9mph 21°C 6°C
24/05/20 18:20 EGLL 241720Z AUTO 34005KT 300V020 9999 NCD 21/06 Q1031 NOSIG NNW (340°) 5.8mph 21°C 6°C
24/05/20 17:50 EGLL 241650Z AUTO 30008KT 270V340 9999 NCD 21/07 Q1031 NOSIG WNW (300°) 9.2mph 21°C 7°C
24/05/20 16:50 EGLL 241550Z AUTO 30010KT 9999 NCD 21/06 Q1031 NOSIG WNW (300°) 11.5mph 21°C 6°C
24/05/20 16:20 EGLL 241520Z AUTO 29011KT 260V320 9999 NCD 21/06 Q1031 NOSIG WNW (290°) 12.7mph 21°C 6°C
24/05/20 15:20 EGLL 241420Z AUTO 30008KT 260V010 9999 NCD 22/07 Q1031 NOSIG WNW (300°) 9.2mph 22°C 7°C
24/05/20 14:50 EGLL 241350Z AUTO 30012KT 270V330 9999 NCD 22/07 Q1031 NOSIG WNW (300°) 13.8mph 22°C 7°C
24/05/20 14:20 EGLL 241320Z AUTO 29011KT 260V330 9999 SCT048 21/07 Q1031 WNW (290°) 12.7mph 21°C 7°C
24/05/20 13:20 EGLL 241220Z AUTO 27013KT 240V310 9999 SCT045 21/08 Q1031 NOSIG W (270°) 15.0mph 21°C 8°C
24/05/20 12:20 EGLL 241120Z AUTO 28012KT 240V310 9999 SCT040 20/08 Q1031 W (280°) 13.8mph 20°C 8°C
24/05/20 11:50 EGLL 241050Z AUTO 26016KT 240V300 9999 SCT039 19/08 Q1031 NOSIG W (260°) 18.4mph 19°C 8°C
24/05/20 11:20 EGLL 241020Z AUTO 27014KT 240V310 9999 SCT034 BKN042 19/09 Q1030 W (270°) 16.1mph 19°C 9°C
24/05/20 10:50 EGLL 240950Z AUTO 27015KT 9999 SCT031 18/09 Q1030 NOSIG W (270°) 17.3mph 18°C 9°C
24/05/20 10:20 EGLL 240920Z AUTO 28015KT 9999 SCT028 BKN034 17/09 Q1030 NOSIG W (280°) 17.3mph 17°C 9°C
24/05/20 09:50 EGLL 240850Z AUTO 29013KT 9999 BKN027 16/09 Q1030 WNW (290°) 15.0mph 16°C 9°C
24/05/20 08:50 EGLL 240750Z AUTO 27012KT 9999 OVC024 15/09 Q1030 NOSIG W (270°) 13.8mph 15°C 9°C
24/05/20 08:20 EGLL 240720Z AUTO 27013KT 9999 OVC024 14/09 Q1029 NOSIG W (270°) 15.0mph 14°C 9°C
24/05/20 07:50 EGLL 240650Z AUTO 25008KT 9999 SCT025 OVC031 13/09 Q1029 NOSIG WSW (250°) 9.2mph 13°C 9°C
24/05/20 07:20 EGLL 240620Z AUTO 25010KT 9999 BKN032 13/09 Q1029 NOSIG WSW (250°) 11.5mph 13°C 9°C
24/05/20 06:50 EGLL 240550Z AUTO 25009KT 9999 FEW020 BKN033 12/09 Q1029 NOSIG WSW (250°) 10.4mph 12°C 9°C
24/05/20 06:20 EGLL 240520Z AUTO 24009KT 9999 SCT019 BKN034 12/09 Q1028 NOSIG WSW (240°) 10.4mph 12°C 9°C
24/05/20 05:50 EGLL 240450Z AUTO 24009KT 9999 FEW022 SCT035 11/08 Q1028 NOSIG WSW (240°) 10.4mph 11°C 8°C
24/05/20 05:20 EGLL 240420Z AUTO 25010KT 9999 FEW022 11/08 Q1028 NOSIG WSW (250°) 11.5mph 11°C 8°C
24/05/20 04:50 EGLL 240350Z AUTO 25009KT 9999 FEW019 BKN034 11/08 Q1028 WSW (250°) 10.4mph 11°C 8°C
24/05/20 04:20 EGLL 240320Z AUTO 25009KT 9999 FEW033 10/08 Q1028 NOSIG WSW (250°) 10.4mph 10°C 8°C
24/05/20 03:50 EGLL 240250Z AUTO 26011KT 9999 BKN033 11/07 Q1028 NOSIG W (260°) 12.7mph 11°C 7°C
24/05/20 03:20 EGLL 240220Z AUTO 26012KT 9999 FEW021 10/07 Q1028 NOSIG W (260°) 13.8mph 10°C 7°C
24/05/20 02:50 EGLL 240150Z AUTO 24009KT 9999 NCD 10/07 Q1028 NOSIG WSW (240°) 10.4mph 10°C 7°C
24/05/20 01:50 EGLL 240050Z AUTO 25012KT 9999 NCD 11/07 Q1028 NOSIG WSW (250°) 13.8mph 11°C 7°C
24/05/20 01:20 EGLL 240020Z AUTO 25013KT 9999 NCD 12/06 Q1028 WSW (250°) 15.0mph 12°C 6°C
24/05/20 00:20 EGLL 232320Z AUTO 25012KT 9999 NCD 11/07 Q1028 NOSIG WSW (250°) 13.8mph 11°C 7°C
23/05/20 23:50 EGLL 232250Z AUTO 26012KT 9999 NCD 12/06 Q1027 NOSIG W (260°) 13.8mph 12°C 6°C
23/05/20 23:20 EGLL 232220Z AUTO 25013KT 9999 NCD 12/06 Q1027 WSW (250°) 15.0mph 12°C 6°C
23/05/20 22:20 EGLL 232120Z AUTO 26013KT 9999 NCD 12/05 Q1027 NOSIG W (260°) 15.0mph 12°C 5°C
23/05/20 21:50 EGLL 232050Z AUTO 26016KT 9999 NCD 13/05 Q1026 W (260°) 18.4mph 13°C 5°C
23/05/20 21:20 EGLL 232020Z AUTO 27015KT 9999 NCD 13/04 Q1026 NOSIG W (270°) 17.3mph 13°C 4°C
23/05/20 20:50 EGLL 231950Z AUTO 27018KT 9999 NCD 14/03 Q1026 NOSIG W (270°) 20.7mph 14°C 3°C
23/05/20 20:20 EGLL 231920Z AUTO 27019KT 9999 NCD 14/03 Q1025 NOSIG W (270°) 21.9mph 14°C 3°C
23/05/20 19:50 EGLL 231850Z AUTO 26022KT 9999 NCD 15/03 Q1025 NOSIG W (260°) 25.3mph 15°C 3°C
23/05/20 19:20 EGLL 231820Z AUTO 27020G30KT 9999 NCD 16/03 Q1025 W (270°) 23.0mph 34.5mph 16°C 3°C
23/05/20 18:50 EGLL 231750Z AUTO 27025G36KT 9999 NCD 16/02 Q1024 W (270°) 28.8mph 41.4mph 16°C 2°C
23/05/20 17:50 EGLL 231650Z AUTO 27018KT 9999 NCD 18/02 Q1024 NOSIG W (270°) 20.7mph 18°C 2°C
23/05/20 17:20 EGLL 231620Z AUTO 26021KT 9999 NCD 17/03 Q1024 NOSIG W (260°) 24.2mph 17°C 3°C
23/05/20 16:50 EGLL 231550Z AUTO 26022KT 9999 NCD 18/03 Q1023 NOSIG W (260°) 25.3mph 18°C 3°C
23/05/20 16:20 EGLL 231520Z AUTO 27023G33KT 9999 NCD 18/04 Q1023 W (270°) 26.5mph 38.0mph 18°C 4°C
23/05/20 15:50 EGLL 231450Z AUTO 27020KT 9999 NCD 18/03 Q1023 W (270°) 23.0mph 18°C 3°C
23/05/20 14:50 EGLL 231350Z AUTO 28019KT 9999 NCD 19/03 Q1022 NOSIG W (280°) 21.9mph 19°C 3°C
23/05/20 14:20 EGLL 231320Z AUTO 27020G31KT 9999 NCD 17/03 Q1022 W (270°) 23.0mph 35.7mph 17°C 3°C
23/05/20 13:50 EGLL 231250Z 26015KT 9999 FEW045CB 16/08 Q1022 RETS W (260°) 17.3mph 16°C 8°C
23/05/20 12:50 EGLL 231150Z AUTO 26016G31KT 9999 BKN044/// //////CB 16/05 Q1022 TEMPO 4000 SHRA W (260°) 18.4mph 35.7mph 16°C 5°C